Time;durP1;ratioP1;P1;durP2;ratioP2;P2;SDS_P1;SDS_P2;PMS_P1;PMS_P2;Temp;Humidity;BMP_temperature;BMP_pressure;BME280_temperature;BME280_humidity;BME280_pressure;Samples;Min_cycle;Max_cycle;Signal;HPM_P1;HPM_P2
2024/03/06 00:01:55;;;;;;;;;;;;;;;19.52;56.27;100725.53;7385036;19;1534;-37
2024/03/06 00:04:26;;;;;;;;;;;;;;;19.84;56.21;100772.72;7385469;19;1860;-37
2024/03/06 00:06:55;;;;;;;;;;;;;;;19.86;56.24;100770.75;7392442;19;1613;-37
2024/03/06 00:09:23;;;;;;;;;;;;;;;19.86;56.17;100768.91;7392272;19;1477;-37
2024/03/06 00:11:52;;;;;;;;;;;;;;;19.68;56.66;100783.97;7392677;19;1546;-37
2024/03/06 00:14:21;;;;;;;;;;;;;;;19.45;56.92;100781.53;7392443;19;1204;-37
2024/03/06 00:16:50;;;;;;;;;;;;;;;19.30;57.31;100796.34;7390596;19;1081;-38
2024/03/06 00:19:18;;;;;;;;;;;;;;;19.21;57.66;100786.41;7393134;19;1007;-37
2024/03/06 00:21:49;;;;;;;;;;;;;;;19.04;57.81;100791.44;7392131;19;1828;-37
2024/03/06 00:24:18;;;;;;;;;;;;;;;18.97;58.03;100789.44;7390112;19;1873;-37
2024/03/06 00:26:47;;;;;;;;;;;;;;;19.01;58.12;100796.22;7392921;19;1457;-37
2024/03/06 00:29:16;;;;;;;;;;;;;;;19.02;57.92;100805.94;7392701;19;1179;-37
2024/03/06 00:31:45;;;;;;;;;;;;;;;19.00;57.86;100789.16;7392125;19;1302;-37
2024/03/06 00:34:13;;;;;;;;;;;;;;;19.02;57.98;100797.91;7391231;19;1163;-37
2024/03/06 00:36:42;;;;;;;;;;;;;;;19.01;57.90;100797.06;7392389;19;1073;-37
2024/03/06 00:39:14;;;;;;;;;;;;;;;18.95;58.33;100792.25;7392828;19;1068;-37
2024/03/06 00:41:42;;;;;;;;;;;;;;;18.99;58.09;100803.56;7391956;19;1833;-37
2024/03/06 00:44:10;;;;;;;;;;;;;;;18.97;58.13;100808.19;7391011;19;1854;-37
2024/03/06 00:46:39;;;;;;;;;;;;;;;18.99;58.25;100808.91;7386012;19;1508;-37
2024/03/06 00:49:07;;;;;;;;;;;;;;;18.85;58.48;100815.47;7382948;19;1153;-37
2024/03/06 00:51:36;;;;;;;;;;;;;;;18.79;58.68;100808.81;7385979;19;1312;-37
2024/03/06 00:54:05;;;;;;;;;;;;;;;18.84;58.75;100805.72;7375802;19;1257;-37
2024/03/06 00:56:39;;;;;;;;;;;;;;;19.03;58.62;100811.16;7390104;19;2524;-37
2024/03/06 00:59:08;;;;;;;;;;;;;;;19.22;58.27;100814.94;7390431;19;1196;-37
2024/03/06 01:01:36;;;;;;;;;;;;;;;19.31;58.05;100818.63;7389891;19;1554;-37
2024/03/06 01:04:04;;;;;;;;;;;;;;;19.16;58.32;100796.69;7389651;19;1894;-37
2024/03/06 01:06:33;;;;;;;;;;;;;;;19.05;58.54;100814.56;7389256;19;1419;-37
2024/03/06 01:09:01;;;;;;;;;;;;;;;19.00;58.65;100822.19;7387506;19;1561;-37
2024/03/06 01:11:29;;;;;;;;;;;;;;;18.90;58.59;100817.75;7388443;19;1151;-37
2024/03/06 01:14:02;;;;;;;;;;;;;;;18.86;58.63;100819.81;7387971;19;1192;-37
2024/03/06 01:16:30;;;;;;;;;;;;;;;18.81;58.67;100811.38;7386240;19;1813;-37
2024/03/06 01:18:58;;;;;;;;;;;;;;;18.81;58.72;100811.38;7390603;19;1478;-37
2024/03/06 01:21:28;;;;;;;;;;;;;;;18.77;58.62;100818.78;7385788;19;1485;-39
2024/03/06 01:23:57;;;;;;;;;;;;;;;18.77;58.75;100812.59;7389983;19;1857;-38
2024/03/06 01:26:25;;;;;;;;;;;;;;;18.80;58.39;100825.72;7389728;19;1251;-37
2024/03/06 01:28:53;;;;;;;;;;;;;;;18.79;58.53;100818.66;7387072;19;1421;-38
2024/03/06 01:31:24;;;;;;;;;;;;;;;18.72;58.80;100818.34;7390750;19;1179;-38
2024/03/06 01:33:53;;;;;;;;;;;;;;;18.74;58.80;100826.22;7389314;19;1270;-37
2024/03/06 01:36:21;;;;;;;;;;;;;;;18.74;58.63;100818.19;7390121;19;1109;-37
2024/03/06 01:38:50;;;;;;;;;;;;;;;18.72;58.86;100833.53;7389974;19;1538;-37
2024/03/06 01:41:18;;;;;;;;;;;;;;;18.73;58.80;100836.09;7389420;19;1224;-37
2024/03/06 01:43:46;;;;;;;;;;;;;;;18.77;58.56;100837.53;7389629;19;1223;-38
2024/03/06 01:46:15;;;;;;;;;;;;;;;18.74;58.41;100831.59;7390677;19;1045;-37
2024/03/06 01:48:46;;;;;;;;;;;;;;;18.69;58.72;100835.50;7389532;19;1495;-37
2024/03/06 01:51:14;;;;;;;;;;;;;;;18.72;58.69;100842.44;7389301;19;1433;-37
2024/03/06 01:53:43;;;;;;;;;;;;;;;18.72;58.46;100841.59;7373903;19;1171;-37
2024/03/06 01:56:17;;;;;;;;;;;;;;;18.68;58.79;100836.50;7389599;19;1544;-37
2024/03/06 01:58:47;;;;;;;;;;;;;;;18.69;58.73;100837.34;7389186;19;1210;-37
2024/03/06 02:01:15;;;;;;;;;;;;;;;18.60;58.76;100836.31;7389036;19;1258;-37
2024/03/06 02:03:47;;;;;;;;;;;;;;;18.50;59.13;100835.38;7388789;19;1279;-37
2024/03/06 02:06:19;;;;;;;;;;;;;;;18.91;58.66;100839.06;7386784;19;1843;-37
2024/03/06 02:08:47;;;;;;;;;;;;;;;19.52;57.35;100829.25;7389727;19;997;-37
2024/03/06 02:11:16;;;;;;;;;;;;;;;20.00;56.23;100842.78;7389979;19;1068;-37
2024/03/06 02:13:45;;;;;;;;;;;;;;;20.12;55.85;100839.97;7388521;19;1323;-37
2024/03/06 02:16:13;;;;;;;;;;;;;;;20.20;55.76;100838.28;7388694;19;1464;-37
2024/03/06 02:18:56;;;;;;;;;;;;;;;19.85;56.50;100839.66;7388470;19;1571;-37
2024/03/06 02:21:28;;;;;;;;;;;;;;;19.78;57.02;100837.69;7387824;19;1554;-37
2024/03/06 02:23:56;;;;;;;;;;;;;;;19.77;57.10;100854.75;7385212;19;1152;-37
2024/03/06 02:26:25;;;;;;;;;;;;;;;19.75;57.03;100854.91;7386942;19;1877;-49
2024/03/06 02:28:54;;;;;;;;;;;;;;;19.74;57.10;100855.91;7386562;19;1158;-37
2024/03/06 02:31:23;;;;;;;;;;;;;;;19.80;57.26;100852.66;7387394;19;1021;-38
2024/03/06 02:33:51;;;;;;;;;;;;;;;19.79;57.36;100852.78;7387389;19;1156;-37
2024/03/06 02:36:21;;;;;;;;;;;;;;;19.84;57.04;100861.28;7388124;19;1495;-39
2024/03/06 02:38:53;;;;;;;;;;;;;;;19.88;57.25;100859.19;7386350;19;1240;-37
2024/03/06 02:41:21;;;;;;;;;;;;;;;19.82;57.13;100858.72;7386547;19;1551;-37
2024/03/06 02:43:49;;;;;;;;;;;;;;;19.89;57.17;100855.50;7386959;19;1255;-37
2024/03/06 02:46:18;;;;;;;;;;;;;;;19.89;57.10;100856.34;7388193;19;1853;-37
2024/03/06 02:48:46;;;;;;;;;;;;;;;19.88;57.11;100849.28;7389558;19;1437;-37
2024/03/06 02:51:20;;;;;;;;;;;;;;;19.93;56.99;100851.53;7390395;19;1238;-37
2024/03/06 02:53:49;;;;;;;;;;;;;;;19.96;56.95;100851.28;7375226;19;1258;-37
2024/03/06 02:56:21;;;;;;;;;;;;;;;19.99;56.80;100848.28;7390209;19;1550;-37
2024/03/06 02:58:49;;;;;;;;;;;;;;;20.00;56.72;100836.59;7390124;19;1242;-37
2024/03/06 03:01:18;;;;;;;;;;;;;;;20.04;57.02;100859.47;7390586;19;1492;-37
2024/03/06 03:03:47;;;;;;;;;;;;;;;20.05;56.68;100850.41;7390425;19;1445;-38
2024/03/06 03:06:15;;;;;;;;;;;;;;;20.02;57.11;100864.97;7388759;19;1860;-37
2024/03/06 03:08:43;;;;;;;;;;;;;;;20.04;57.02;100843.38;7390064;19;1081;-37
2024/03/06 03:11:12;;;;;;;;;;;;;;;20.05;56.94;100863.84;7388455;19;1513;-37
2024/03/06 03:13:42;;;;;;;;;;;;;;;20.07;56.78;100875.28;7385805;19;1323;-37
2024/03/06 03:16:17;;;;;;;;;;;;;;;20.08;56.78;100873.47;7386484;19;1193;-37
2024/03/06 03:18:46;;;;;;;;;;;;;;;20.11;56.78;100870.50;7387626;19;1496;-37
2024/03/06 03:21:14;;;;;;;;;;;;;;;20.09;56.84;100870.63;7384900;19;1243;-37
2024/03/06 03:23:43;;;;;;;;;;;;;;;20.12;56.85;100877.56;7385520;19;1171;-37
2024/03/06 03:26:13;;;;;;;;;;;;;;;20.12;56.82;100889.16;7385314;19;1857;-37
2024/03/06 03:28:44;;;;;;;;;;;;;;;20.13;56.90;100890.00;7386323;19;1567;-37
2024/03/06 03:31:12;;;;;;;;;;;;;;;20.10;56.96;100896.50;7387350;19;1072;-37
2024/03/06 03:33:42;;;;;;;;;;;;;;;20.15;56.90;100894.22;7386220;19;1598;-37
2024/03/06 03:36:11;;;;;;;;;;;;;;;20.14;57.11;100892.53;7385829;19;1386;-37
2024/03/06 03:38:40;;;;;;;;;;;;;;;20.17;56.88;100896.78;7387657;19;1647;-38
2024/03/06 03:41:09;;;;;;;;;;;;;;;20.20;56.76;100886.59;7393555;19;1183;-37
2024/03/06 03:43:39;;;;;;;;;;;;;;;20.18;56.81;100888.59;7390951;19;1437;-37
2024/03/06 03:46:09;;;;;;;;;;;;;;;20.20;56.79;100889.28;7393385;19;1870;-37
2024/03/06 03:48:38;;;;;;;;;;;;;;;20.20;56.92;100891.97;7394714;19;1484;-37
2024/03/06 03:51:07;;;;;;;;;;;;;;;20.24;56.89;100900.59;7393791;19;1489;-37
2024/03/06 03:53:35;;;;;;;;;;;;;;;20.29;56.80;100900.19;7392760;19;1187;-47
2024/03/06 03:56:04;;;;;;;;;;;;;;;20.27;56.67;100901.19;7382426;19;1176;-38
2024/03/06 03:58:32;;;;;;;;;;;;;;;20.34;56.83;100887.19;7391991;19;1526;-37
2024/03/06 04:01:01;;;;;;;;;;;;;;;20.17;57.01;100907.50;7393364;19;1583;-38
2024/03/06 04:03:33;;;;;;;;;;;;;;;19.85;57.69;100906.75;7393645;19;1211;-37
2024/03/06 04:06:01;;;;;;;;;;;;;;;19.63;58.17;100896.22;7391945;19;1855;-37
2024/03/06 04:08:29;;;;;;;;;;;;;;;19.51;58.21;100905.34;7392554;19;1230;-37
2024/03/06 04:10:58;;;;;;;;;;;;;;;19.38;58.46;100911.81;7390638;19;1469;-37
2024/03/06 04:13:26;;;;;;;;;;;;;;;19.42;58.29;100915.91;7392602;19;1577;-37
2024/03/06 04:15:55;;;;;;;;;;;;;;;19.36;58.23;100942.41;7390476;19;2450;-37
2024/03/06 04:18:23;;;;;;;;;;;;;;;19.32;58.35;100906.97;7392303;19;1187;-37
2024/03/06 04:20:54;;;;;;;;;;;;;;;19.27;58.19;100920.75;7392379;19;1540;-37
2024/03/06 04:23:23;;;;;;;;;;;;;;;19.23;58.43;100905.09;7393128;19;1113;-38
2024/03/06 04:25:52;;;;;;;;;;;;;;;19.17;58.42;100925.22;7390615;19;1853;-37
2024/03/06 04:28:20;;;;;;;;;;;;;;;19.24;58.41;100923.72;7391855;19;1199;-37
2024/03/06 04:30:48;;;;;;;;;;;;;;;19.06;58.61;100919.97;7393348;19;1191;-37
2024/03/06 04:33:17;;;;;;;;;;;;;;;19.04;58.95;100921.94;7392318;19;1488;-37
2024/03/06 04:35:45;;;;;;;;;;;;;;;19.24;58.99;100925.56;7392606;19;1560;-37
2024/03/06 04:38:16;;;;;;;;;;;;;;;19.42;58.53;100942.72;7391965;19;1507;-37
2024/03/06 04:40:44;;;;;;;;;;;;;;;19.44;58.32;100924.66;7392000;19;1144;-38
2024/03/06 04:43:13;;;;;;;;;;;;;;;19.37;58.45;100939.59;7392020;19;1206;-37
2024/03/06 04:45:41;;;;;;;;;;;;;;;19.25;58.75;100938.81;7390849;19;1857;-37
2024/03/06 04:48:10;;;;;;;;;;;;;;;19.23;58.79;100942.63;7390751;19;2506;-37
2024/03/06 04:50:38;;;;;;;;;;;;;;;19.12;58.79;100943.56;7391738;19;1453;-37
2024/03/06 04:53:07;;;;;;;;;;;;;;;19.09;58.71;100943.81;7392358;19;1315;-37
2024/03/06 04:55:38;;;;;;;;;;;;;;;19.03;58.92;100950.53;7376586;19;1463;-37
2024/03/06 04:58:06;;;;;;;;;;;;;;;19.01;59.39;100948.97;7391860;19;1540;-37
2024/03/06 05:00:34;;;;;;;;;;;;;;;19.19;59.20;100944.72;7391300;19;1192;-37
2024/03/06 05:03:03;;;;;;;;;;;;;;;19.38;58.96;100954.72;7391139;19;1098;-37
2024/03/06 05:05:32;;;;;;;;;;;;;;;19.34;58.90;100974.72;7390003;19;1861;-37
2024/03/06 05:08:00;;;;;;;;;;;;;;;19.29;58.97;100966.22;7389171;19;1555;-37
2024/03/06 05:10:29;;;;;;;;;;;;;;;19.22;59.00;100979.31;7390232;19;1248;-37
2024/03/06 05:12:59;;;;;;;;;;;;;;;19.15;59.24;100979.97;7388939;19;1548;-37
2024/03/06 05:15:28;;;;;;;;;;;;;;;19.04;59.55;100987.09;7390208;19;1510;-37
2024/03/06 05:17:57;;;;;;;;;;;;;;;19.04;59.65;100984.41;7388267;19;1501;-37
2024/03/06 05:20:25;;;;;;;;;;;;;;;19.05;59.74;100983.44;7389633;19;1554;-37
2024/03/06 05:22:53;;;;;;;;;;;;;;;19.27;59.62;100989.63;7390321;19;1039;-38
2024/03/06 05:25:21;;;;;;;;;;;;;;;19.53;59.19;100981.16;7388496;19;1845;-37
2024/03/06 05:27:50;;;;;;;;;;;;;;;19.45;59.29;100988.03;7387362;19;1253;-37
2024/03/06 05:30:21;;;;;;;;;;;;;;;19.28;59.53;100988.66;7388456;19;1481;-37
2024/03/06 05:32:49;;;;;;;;;;;;;;;18.88;59.64;100941.16;7389163;19;1536;-40
2024/03/06 05:35:17;;;;;;;;;;;;;;;19.01;60.21;101002.59;7389390;19;1175;-37
2024/03/06 05:37:46;;;;;;;;;;;;;;;19.00;60.07;100996.38;7389067;19;1349;-37
2024/03/06 05:40:15;;;;;;;;;;;;;;;18.96;60.67;101002.97;7386697;19;1271;-37
2024/03/06 05:42:43;;;;;;;;;;;;;;;18.93;60.62;101008.59;7389458;19;1104;-37
2024/03/06 05:45:13;;;;;;;;;;;;;;;19.03;60.76;100995.25;7386998;19;1859;-37
2024/03/06 05:47:43;;;;;;;;;;;;;;;19.31;59.79;100999.13;7389182;19;1195;-38
2024/03/06 05:50:12;;;;;;;;;;;;;;;19.18;58.84;101014.53;7387961;19;1192;-37
2024/03/06 05:52:40;;;;;;;;;;;;;;;19.00;59.79;101006.22;7386356;19;1856;-37
2024/03/06 05:55:09;;;;;;;;;;;;;;;19.00;59.37;101016.94;7371201;19;1379;-37
2024/03/06 05:57:37;;;;;;;;;;;;;;;19.04;58.97;101021.09;7384388;19;1159;-37
2024/03/06 06:00:11;;;;;;;;;;;;;;;18.95;59.10;101032.59;7385255;19;1441;-38
2024/03/06 06:02:39;;;;;;;;;;;;;;;19.01;58.78;101019.50;7384127;19;1511;-39
2024/03/06 06:05:10;;;;;;;;;;;;;;;19.45;58.35;101019.38;7385067;19;1584;-37
2024/03/06 06:07:38;;;;;;;;;;;;;;;19.48;61.03;101036.06;7382365;19;1837;-37
2024/03/06 06:10:09;;;;;;;;;;;;;;;19.31;62.40;101033.97;7384344;19;1411;-37
2024/03/06 06:12:38;;;;;;;;;;;;;;;19.24;63.52;101065.00;7385403;19;1657;-37
2024/03/06 06:15:07;;;;;;;;;;;;;;;18.78;54.84;101031.25;7383539;19;1330;-37
2024/03/06 06:17:35;;;;;;;;;;;;;;;18.52;55.16;101042.31;7385104;19;1656;-37
2024/03/06 06:20:03;;;;;;;;;;;;;;;18.72;59.79;101039.81;7389041;19;1584;-37
2024/03/06 06:22:35;;;;;;;;;;;;;;;18.97;58.99;101033.31;7388848;19;1227;-37
2024/03/06 06:25:03;;;;;;;;;;;;;;;19.04;57.92;101042.53;7388323;19;1495;-37
2024/03/06 06:27:32;;;;;;;;;;;;;;;18.64;56.03;101033.28;7386487;19;1861;-37
2024/03/06 06:30:00;;;;;;;;;;;;;;;18.37;55.68;101044.41;7387226;19;1215;-37
2024/03/06 06:32:28;;;;;;;;;;;;;;;18.23;55.51;101058.91;7386873;19;1180;-37
2024/03/06 06:34:57;;;;;;;;;;;;;;;18.30;58.83;101051.22;7387492;19;1581;-37
2024/03/06 06:37:26;;;;;;;;;;;;;;;18.63;57.91;101052.16;7388117;19;1044;-37
2024/03/06 06:39:57;;;;;;;;;;;;;;;18.90;57.07;101035.66;7388512;19;1056;-37
2024/03/06 06:42:25;;;;;;;;;;;;;;;18.58;55.85;101054.34;7387358;19;1980;-37
2024/03/06 06:44:54;;;;;;;;;;;;;;;18.25;54.65;101048.09;7387971;19;1472;-37
2024/03/06 06:47:22;;;;;;;;;;;;;;;18.14;55.24;101056.97;7385427;19;1843;-37
2024/03/06 06:49:50;;;;;;;;;;;;;;;18.37;57.30;101044.41;7386143;19;1181;-38
2024/03/06 06:52:19;;;;;;;;;;;;;;;18.78;57.17;101053.56;7387784;19;1751;-37
2024/03/06 06:54:48;;;;;;;;;;;;;;;18.99;56.94;101048.28;7372775;19;1518;-37
2024/03/06 06:57:19;;;;;;;;;;;;;;;18.94;57.05;101047.81;7385922;19;1401;-37
2024/03/06 06:59:48;;;;;;;;;;;;;;;18.91;57.40;101052.59;7387687;19;1279;-37
2024/03/06 07:02:17;;;;;;;;;;;;;;;18.84;57.90;101045.06;7386976;19;1374;-37
2024/03/06 07:04:45;;;;;;;;;;;;;;;18.77;58.00;101051.84;7388308;19;1264;-38
2024/03/06 07:07:13;;;;;;;;;;;;;;;18.97;57.92;101052.06;7385615;19;1849;-37
2024/03/06 07:09:42;;;;;;;;;;;;;;;19.03;58.40;101047.03;7385488;19;1226;-37
2024/03/06 07:12:10;;;;;;;;;;;;;;;18.95;58.56;101057.53;7385868;19;1362;-37
2024/03/06 07:14:41;;;;;;;;;;;;;;;18.88;58.61;101051.84;7386167;19;1232;-37
2024/03/06 07:17:10;;;;;;;;;;;;;;;18.90;58.78;101067.81;7386747;19;1215;-37
2024/03/06 07:19:39;;;;;;;;;;;;;;;18.81;59.15;101063.22;7387512;19;1483;-37
2024/03/06 07:22:07;;;;;;;;;;;;;;;19.02;58.92;101072.16;7387044;19;1168;-37
2024/03/06 07:24:36;;;;;;;;;;;;;;;19.09;58.77;101056.38;7386540;19;1208;-37
2024/03/06 07:27:05;;;;;;;;;;;;;;;19.01;58.94;101066.91;7384382;19;1871;-39
2024/03/06 07:29:33;;;;;;;;;;;;;;;18.94;59.03;101068.38;7386217;19;1380;-37
2024/03/06 07:32:05;;;;;;;;;;;;;;;18.91;59.25;101066.81;7386579;19;1394;-37
2024/03/06 07:34:33;;;;;;;;;;;;;;;18.81;59.52;101079.28;7386336;19;1801;-37
2024/03/06 07:37:02;;;;;;;;;;;;;;;19.01;59.19;101078.47;7382946;19;1468;-37
2024/03/06 07:39:31;;;;;;;;;;;;;;;19.04;59.36;101059.47;7385161;19;1565;-37
2024/03/06 07:41:59;;;;;;;;;;;;;;;19.05;59.30;101076.41;7385844;19;1355;-37
2024/03/06 07:44:27;;;;;;;;;;;;;;;18.95;59.10;101079.00;7383920;19;1449;-37
2024/03/06 07:46:56;;;;;;;;;;;;;;;18.94;59.41;101090.69;7383425;19;1874;-37
2024/03/06 07:49:27;;;;;;;;;;;;;;;18.80;59.87;101082.94;7386014;19;1144;-37
2024/03/06 07:51:56;;;;;;;;;;;;;;;19.06;59.40;101096.88;7385301;19;1399;-37
2024/03/06 07:54:25;;;;;;;;;;;;;;;19.05;59.45;101077.22;7384620;19;1347;-37
2024/03/06 07:56:54;;;;;;;;;;;;;;;19.03;59.47;101084.56;7371146;19;1219;-37
2024/03/06 07:59:22;;;;;;;;;;;;;;;19.01;59.25;101091.88;7384829;19;1196;-37
2024/03/06 08:01:50;;;;;;;;;;;;;;;18.88;59.54;101097.41;7384732;19;1179;-37
2024/03/06 08:04:19;;;;;;;;;;;;;;;18.73;60.20;101097.78;7380756;19;1275;-37
2024/03/06 08:06:50;;;;;;;;;;;;;;;19.24;59.07;101099.84;7379481;19;1859;-37
2024/03/06 08:09:19;;;;;;;;;;;;;;;19.79;57.52;101124.66;7380293;19;1135;-36
2024/03/06 08:11:47;;;;;;;;;;;;;;;20.08;56.88;101099.81;7380932;19;1377;-35
2024/03/06 08:14:17;;;;;;;;;;;;;;;20.29;56.13;101096.22;7380916;19;1200;-35
2024/03/06 08:16:45;;;;;;;;;;;;;;;20.13;56.52;101105.63;7383063;19;1171;-36
2024/03/06 08:19:14;;;;;;;;;;;;;;;20.18;56.44;101097.19;7381628;19;1473;-36
2024/03/06 08:21:42;;;;;;;;;;;;;;;20.49;55.77;101111.41;7385143;19;1555;-36
2024/03/06 08:24:15;;;;;;;;;;;;;;;20.64;55.19;101091.25;7383654;19;1560;-35
2024/03/06 08:26:43;;;;;;;;;;;;;;;20.75;54.89;101103.75;7389646;19;1868;-36
2024/03/06 08:29:11;;;;;;;;;;;;;;;20.68;55.23;101094.53;7390500;19;1205;-36
2024/03/06 08:31:40;;;;;;;;;;;;;;;20.61;55.14;101110.38;7382333;19;1198;-37
2024/03/06 08:34:08;;;;;;;;;;;;;;;20.52;55.57;101108.47;7384575;19;1748;-37
2024/03/06 08:36:36;;;;;;;;;;;;;;;20.54;55.74;101108.31;7390880;19;1234;-37
2024/03/06 08:39:05;;;;;;;;;;;;;;;20.47;55.68;101108.00;7389261;19;1670;-37
2024/03/06 08:41:36;;;;;;;;;;;;;;;20.47;55.79;101118.75;7389334;19;1496;-36
2024/03/06 08:44:04;;;;;;;;;;;;;;;20.52;55.79;101107.63;7389798;19;1279;-36
2024/03/06 08:46:33;;;;;;;;;;;;;;;20.70;55.34;101115.91;7389285;19;1850;-36
2024/03/06 08:49:02;;;;;;;;;;;;;;;20.70;55.39;101118.59;7390941;19;1445;-37
2024/03/06 08:51:30;;;;;;;;;;;;;;;20.74;55.10;101112.78;7390678;19;1137;-36
2024/03/06 08:53:58;;;;;;;;;;;;;;;20.71;55.13;101104.13;7390579;19;1425;-37
2024/03/06 08:56:27;;;;;;;;;;;;;;;20.83;55.06;101106.59;7375978;19;1412;-37
2024/03/06 08:58:58;;;;;;;;;;;;;;;20.76;55.21;101107.28;7390860;19;1228;-37
2024/03/06 09:01:26;;;;;;;;;;;;;;;20.63;55.61;101111.06;7391187;19;1384;-37
2024/03/06 09:03:56;;;;;;;;;;;;;;;20.69;55.63;101111.50;7390957;19;1180;-37
2024/03/06 09:06:24;;;;;;;;;;;;;;;20.71;55.56;101096.06;7391209;19;1865;-37
2024/03/06 09:08:52;;;;;;;;;;;;;;;20.74;55.79;101103.88;7390300;19;1543;-38
2024/03/06 09:11:23;;;;;;;;;;;;;;;20.74;55.71;101098.50;7388607;19;1310;-37
2024/03/06 09:13:52;;;;;;;;;;;;;;;20.76;55.80;101096.53;7390646;19;1148;-37
2024/03/06 09:16:23;;;;;;;;;;;;;;;20.80;55.69;101092.56;7390302;19;1191;-37
2024/03/06 09:18:51;;;;;;;;;;;;;;;20.82;55.69;101091.44;7389631;19;1611;-37
2024/03/06 09:21:21;;;;;;;;;;;;;;;20.82;55.65;101094.13;7390414;19;1543;-37
2024/03/06 09:23:51;;;;;;;;;;;;;;;20.90;55.62;101100.66;7389820;19;1568;-37
2024/03/06 09:26:20;;;;;;;;;;;;;;;20.92;55.72;101096.81;7388445;19;1285;-37
2024/03/06 09:28:49;;;;;;;;;;;;;;;20.89;55.74;101096.25;7387903;19;1898;-37
2024/03/06 09:31:17;;;;;;;;;;;;;;;20.93;55.58;101090.47;7390704;19;1303;-36
2024/03/06 09:33:48;;;;;;;;;;;;;;;20.97;55.42;101093.69;7390132;19;1149;-36
2024/03/06 09:36:17;;;;;;;;;;;;;;;20.82;55.27;101087.91;7388543;19;1298;-37
2024/03/06 09:38:45;;;;;;;;;;;;;;;20.90;55.33;101087.22;7388003;19;1227;-37
2024/03/06 09:41:13;;;;;;;;;;;;;;;20.89;55.42;101082.81;7389581;19;1653;-36
2024/03/06 09:43:42;;;;;;;;;;;;;;;20.91;55.47;101076.31;7389348;19;1125;-37
2024/03/06 09:46:11;;;;;;;;;;;;;;;20.64;55.84;101082.34;7389759;19;1242;-36
2024/03/06 09:48:47;;;;;;;;;;;;;;;20.17;56.63;101084.72;7386477;19;1847;-36
2024/03/06 09:51:18;;;;;;;;;;;;;;;19.91;57.06;101089.69;7385500;19;1441;-36
2024/03/06 09:53:51;;;;;;;;;;;;;;;19.29;56.58;101076.16;7389964;19;1388;-37
2024/03/06 09:56:20;;;;;;;;;;;;;;;19.23;57.39;101084.72;7374988;19;1318;-36
2024/03/06 09:58:48;;;;;;;;;;;;;;;19.33;57.68;101091.00;7388743;19;1132;-37
2024/03/06 10:01:17;;;;;;;;;;;;;;;19.22;57.51;101085.72;7388854;19;1258;-36
2024/03/06 10:03:46;;;;;;;;;;;;;;;19.16;58.01;101094.25;7388462;19;1491;-37
2024/03/06 10:06:14;;;;;;;;;;;;;;;19.63;57.47;101089.38;7387087;19;1464;-36
2024/03/06 10:08:47;;;;;;;;;;;;;;;19.66;56.86;101075.72;7385027;19;1874;-36
2024/03/06 10:11:17;;;;;;;;;;;;;;;19.88;56.48;101079.25;7388663;19;1418;-37
2024/03/06 10:13:45;;;;;;;;;;;;;;;20.08;56.06;101070.28;7385285;19;1230;-37
2024/03/06 10:16:14;;;;;;;;;;;;;;;20.14;56.09;101082.31;7389160;19;1112;-36
2024/03/06 10:18:42;;;;;;;;;;;;;;;20.16;55.95;101081.19;7384410;19;1194;-37
2024/03/06 10:21:11;;;;;;;;;;;;;;;20.11;56.15;101059.25;7386005;19;1196;-37
2024/03/06 10:23:40;;;;;;;;;;;;;;;20.12;56.10;101060.97;7385360;19;1097;-37
2024/03/06 10:26:12;;;;;;;;;;;;;;;20.13;56.24;101084.13;7387634;19;1409;-36
2024/03/06 10:28:47;;;;;;;;;;;;;;;20.15;56.02;101071.44;7384629;19;1869;-37
2024/03/06 10:31:15;;;;;;;;;;;;;;;20.09;56.04;101071.97;7383717;19;1843;-38
2024/03/06 10:33:45;;;;;;;;;;;;;;;20.12;56.06;101058.28;7383657;19;1568;-36
2024/03/06 10:36:14;;;;;;;;;;;;;;;20.12;56.09;101070.88;7383871;19;1594;-36
2024/03/06 10:38:46;;;;;;;;;;;;;;;20.16;56.08;101061.56;7383446;19;1203;-36
2024/03/06 10:41:17;;;;;;;;;;;;;;;20.15;55.94;101059.84;7382823;19;1560;-37
2024/03/06 10:43:46;;;;;;;;;;;;;;;20.20;55.96;101065.69;7384569;19;2577;-37
2024/03/06 10:46:14;;;;;;;;;;;;;;;20.22;55.86;101061.84;7388543;19;1020;-37
2024/03/06 10:48:43;;;;;;;;;;;;;;;20.17;56.18;101042.59;7385365;19;1873;-37
2024/03/06 10:51:13;;;;;;;;;;;;;;;20.21;55.77;101046.75;7387051;19;1192;-37
2024/03/06 10:53:43;;;;;;;;;;;;;;;20.24;55.98;101048.31;7387322;19;1175;-37
2024/03/06 10:56:11;;;;;;;;;;;;;;;20.24;55.77;101049.13;7372437;19;1634;-37
2024/03/06 10:58:44;;;;;;;;;;;;;;;20.22;55.83;101048.44;7387078;19;1753;-37
2024/03/06 11:01:12;;;;;;;;;;;;;;;20.23;55.88;101047.47;7386524;19;1176;-37
2024/03/06 11:03:40;;;;;;;;;;;;;;;20.24;55.96;101043.78;7387843;19;1563;-37
2024/03/06 11:06:09;;;;;;;;;;;;;;;20.23;55.72;101042.09;7387577;19;1148;-37
2024/03/06 11:08:37;;;;;;;;;;;;;;;20.24;55.98;101050.97;7386436;19;1855;-38
2024/03/06 11:11:21;;;;;;;;;;;;;;;20.27;55.93;101043.50;7386432;19;1540;-37
2024/03/06 11:13:52;;;;;;;;;;;;;;;20.24;55.77;101037.56;7386780;19;1860;-37
2024/03/06 11:16:20;;;;;;;;;;;;;;;20.31;55.71;101036.00;7385510;19;1219;-37
2024/03/06 11:18:50;;;;;;;;;;;;;;;20.33;55.78;101035.88;7383766;19;1715;-37
2024/03/06 11:21:31;;;;;;;;;;;;;;;20.27;55.69;101038.13;7386269;19;1215;-37
2024/03/06 11:24:14;;;;;;;;;;;;;;;20.30;55.78;101037.00;7386289;19;1532;-37
2024/03/06 11:26:45;;;;;;;;;;;;;;;20.32;55.63;101026.97;7386575;19;1484;-37
2024/03/06 11:29:18;;;;;;;;;;;;;;;20.29;55.62;101032.59;7383928;19;1879;-37
2024/03/06 11:32:01;;;;;;;;;;;;;;;20.28;55.79;101028.25;7385799;19;1287;-37
2024/03/06 11:34:30;;;;;;;;;;;;;;;20.29;55.73;101035.28;7387038;19;1183;-37
2024/03/06 11:36:59;;;;;;;;;;;;;;;20.31;55.76;101022.56;7386230;19;1595;-37
2024/03/06 11:39:33;;;;;;;;;;;;;;;20.32;55.72;101028.81;7386248;19;1808;-37
2024/03/06 11:42:02;;;;;;;;;;;;;;;20.31;55.65;101021.72;7385667;19;1176;-37
2024/03/06 11:44:34;;;;;;;;;;;;;;;20.32;55.64;101032.34;7386631;19;1832;-37
2024/03/06 11:47:03;;;;;;;;;;;;;;;20.31;55.53;101011.00;7386780;19;1520;-37
2024/03/06 11:49:33;;;;;;;;;;;;;;;20.36;55.72;101030.25;7384934;19;1834;-37
2024/03/06 11:52:03;;;;;;;;;;;;;;;20.35;55.61;101020.47;7386198;19;1007;-37
2024/03/06 11:54:32;;;;;;;;;;;;;;;20.31;55.64;101014.53;7385815;19;1511;-36
2024/03/06 11:57:02;;;;;;;;;;;;;;;20.34;55.60;101022.31;7371234;19;1126;-37
2024/03/06 11:59:34;;;;;;;;;;;;;;;20.34;55.67;101025.00;7385550;19;1326;-37
2024/03/06 12:02:04;;;;;;;;;;;;;;;20.33;55.61;101019.75;7391938;19;1160;-37
2024/03/06 12:04:33;;;;;;;;;;;;;;;20.34;55.56;101022.31;7389986;19;1480;-37
2024/03/06 12:07:04;;;;;;;;;;;;;;;20.36;55.49;101014.13;7393215;19;1718;-37
2024/03/06 12:09:33;;;;;;;;;;;;;;;20.32;55.65;101018.91;7389848;19;1882;-37
2024/03/06 12:12:01;;;;;;;;;;;;;;;20.33;55.88;101017.06;7391704;19;1157;-37
2024/03/06 12:14:33;;;;;;;;;;;;;;;20.33;55.69;101017.06;7392257;19;1250;-37
2024/03/06 12:17:04;;;;;;;;;;;;;;;20.31;55.67;101013.69;7392485;19;1164;-37
2024/03/06 12:19:34;;;;;;;;;;;;;;;20.35;55.80;101012.41;7392963;19;1072;-37
2024/03/06 12:22:03;;;;;;;;;;;;;;;20.30;55.78;101009.31;7392931;19;1122;-36
2024/03/06 12:24:32;;;;;;;;;;;;;;;20.36;55.62;101019.50;7392122;19;1509;-37
2024/03/06 12:27:04;;;;;;;;;;;;;;;20.31;55.76;101005.63;7392274;19;1205;-37
2024/03/06 12:29:35;;;;;;;;;;;;;;;20.36;55.63;101014.13;7388996;19;1857;-36
2024/03/06 12:32:04;;;;;;;;;;;;;;;20.31;55.85;101009.16;7392644;19;1503;-36
2024/03/06 12:34:32;;;;;;;;;;;;;;;20.32;55.91;101010.03;7392495;19;1043;-37
2024/03/06 12:37:10;;;;;;;;;;;;;;;20.34;55.50;101010.72;7392107;19;1460;-37
2024/03/06 12:39:39;;;;;;;;;;;;;;;20.31;55.65;101001.09;7392208;19;1238;-37
2024/03/06 12:42:07;;;;;;;;;;;;;;;20.30;55.58;100998.56;7392214;19;1567;-37
2024/03/06 12:44:39;;;;;;;;;;;;;;;20.33;55.70;101003.66;7391684;19;1259;-37
2024/03/06 12:47:07;;;;;;;;;;;;;;;20.34;55.60;101005.34;7391615;19;1203;-37
2024/03/06 12:49:36;;;;;;;;;;;;;;;20.27;55.80;100992.50;7389193;19;1874;-44
2024/03/06 12:52:04;;;;;;;;;;;;;;;20.27;55.81;101003.22;7392014;19;1020;-45
2024/03/06 12:54:32;;;;;;;;;;;;;;;20.30;55.80;101009.31;7389591;19;1825;-37
2024/03/06 12:57:01;;;;;;;;;;;;;;;20.29;55.73;101002.22;7376193;19;1574;-37
2024/03/06 12:59:29;;;;;;;;;;;;;;;20.31;55.74;101013.69;7391424;19;1406;-36